Hendersonville, NC

10:38 AM EDT on April 26, 2017 (GMT -0400)
Maplewood Ct off Hwy 191 Haywood Rd. | | Change Station
Active Advisory: Special Statement

Elev 2126 ft 35.33 °N, 82.48 °W | Updated 2 seconds ago

Partly Cloudy
Partly Cloudy
67.0 °F
Feels Like 67.0 °F
N
2.0
Wind Variable Wind from WSW
Gusts 5.0 mph

Today
High -- | Low -- °F
--% Chance of Precip.
Yesterday
High -- | Low -- °F
Precip. -- in
Pressure 29.84 in
Visibility 10.0 miles
Clouds Clear
Dew Point 59 °F
Humidity 76%
Rainfall 0.00 in
Snow Depth Not available.
6:43 AM 8:11 PM
New Moon, 0% visible
METAR KAVL 261354Z 35007KT 10SM CLR 16/11 A2989 RMK AO2 SLP104 T01610111
Pressure 29.84 in
Visibility 10.0 miles
Clouds Clear
Dew Point 59 °F
Humidity 76%
Rainfall 0.00 in
Snow Depth Not available.
6:43 AM 8:11 PM
New Moon, 0% visible
METAR KAVL 261354Z 35007KT 10SM CLR 16/11 A2989 RMK AO2 SLP104 T01610111

Get Your Daily Forecast Email!

Thanks for signing up!

Be on the lookout for a verification email in your inbox.

You'll start receiving severe weather alerts in your inbox..

×

10-Day Weather Forecast

Almanac

Astronomy

Apr. 26, 2017 Rise Set
Actual Time
Civil Twilight
Nautical Twilight
Astronomical Twilight
Moon
Length of Visible Light
Length of Day
Tomorrow will be .
, % of the Moon is Illuminated

Today's Extremes

State Highs State Lows

Community

WunderPhotos

WunderBlog® & News

Nearby

Air Quality

  Air Quality AQ Index Pollutant
Not available.

Snow Depth

Station Depth Elevation

Earthquake Activity

City Distance Mag. Time & Date
Minimum magnitude displayed is 2.5.

Coastal Water Temperatures

Place Temperature

Stations

Nearby Weather Stations

Station Location Temp. Windchill Dew Point Humidity Wind Precip. Elev Updated Type
                   

Watches & Warnings

Special Statement
Issued: 8:54 AM EDT Apr. 26, 2017 – National Weather Service

... Patchy dense fog remains across much of the region...

Patchy dense fog remains spread about the region this morning.
Specifically across the mountain valleys and southern foothills
and Piedmont of North Carolina, and across the upstate and
northeast Georgia early this morning. Visibilities have been
dropping to a quarter mile or lower at times, especially in the
Greenville and Anderson areas. Motorists are urged to use extra
caution on their morning commute, use low beam headlights, and
allow extra time to reach their destinations. The fog should lift
by around 10 to 11 am.


Cdg